Time;durP1;ratioP1;P1;durP2;ratioP2;P2;SDS_P1;SDS_P2;PMS_P1;PMS_P2;Temp;Humidity;BMP_temperature;BMP_pressure;BME280_temperature;BME280_humidity;BME280_pressure;Samples;Min_cycle;Max_cycle;Signal;HPM_P1;HPM_P2
2022/12/24 00:02:14;;;;;;;2.65;1.30;;;18.80;63.60;;;;;;5053971;28;20269;-67
2022/12/24 00:04:40;;;;;;;4.47;1.00;;;18.80;63.70;;;;;;5069479;28;20190;-66
2022/12/24 00:07:06;;;;;;;1.25;0.93;;;18.80;63.60;;;;;;5072734;28;20196;-66
2022/12/24 00:09:31;;;;;;;1.88;1.25;;;18.80;63.60;;;;;;5049046;28;20275;-66
2022/12/24 00:11:57;;;;;;;2.55;1.20;;;18.80;63.60;;;;;;5054797;28;20213;-67
2022/12/24 00:14:26;;;;;;;2.83;1.10;;;18.80;63.60;;;;;;5072878;28;20189;-66
2022/12/24 00:16:51;;;;;;;2.20;1.13;;;18.90;63.70;;;;;;5044353;28;20332;-67
2022/12/24 00:19:17;;;;;;;1.73;1.17;;;18.90;63.80;;;;;;5065574;28;20205;-66
2022/12/24 00:21:43;;;;;;;1.73;1.40;;;18.80;63.60;;;;;;5069596;28;20575;-66
2022/12/24 00:24:09;;;;;;;1.73;1.10;;;18.80;63.50;;;;;;5056121;28;20173;-66
2022/12/24 00:26:35;;;;;;;2.35;1.10;;;18.80;63.60;;;;;;5072424;28;20648;-67
2022/12/24 00:29:00;;;;;;;1.33;0.98;;;18.80;63.50;;;;;;5056815;28;20244;-66
2022/12/24 00:31:26;;;;;;;1.60;1.08;;;18.80;63.60;;;;;;5067631;28;20190;-66
2022/12/24 00:33:52;;;;;;;2.40;1.52;;;18.80;63.50;;;;;;5060861;28;20189;-66
2022/12/24 00:36:19;;;;;;;2.75;1.30;;;18.80;63.50;;;;;;5056223;28;20244;-66
2022/12/24 00:38:45;;;;;;;1.67;1.08;;;18.80;63.50;;;;;;5063382;28;20213;-66
2022/12/24 00:41:23;;;;;;;2.30;1.15;;;18.80;63.40;;;;;;5060495;28;20269;-66
2022/12/24 00:43:55;;;;;;;1.27;1.00;;;18.80;63.50;;;;;;5077918;28;20205;-67
2022/12/24 00:46:23;;;;;;;1.13;1.00;;;18.80;63.50;;;;;;5072231;28;20198;-67
2022/12/24 00:48:49;;;;;;;1.55;0.90;;;18.80;63.40;;;;;;5070935;28;20307;-66
2022/12/24 00:51:16;;;;;;;1.90;1.08;;;18.80;63.40;;;;;;5052259;28;20320;-66
2022/12/24 00:53:42;;;;;;;3.53;1.10;;;18.80;63.40;;;;;;5072159;28;20193;-67
2022/12/24 00:56:08;;;;;;;2.05;1.20;;;18.80;63.40;;;;;;5072959;28;20240;-66
2022/12/24 00:58:34;;;;;;;1.65;1.20;;;18.80;63.40;;;;;;5064850;28;20220;-66
2022/12/24 01:01:00;;;;;;;2.17;1.30;;;18.80;64.20;;;;;;5052956;28;20182;-66
2022/12/24 01:03:35;;;;;;;2.03;1.20;;;18.80;63.40;;;;;;5060561;28;20190;-66
2022/12/24 01:06:16;;;;;;;1.38;1.00;;;18.80;63.40;;;;;;5071094;28;20194;-65
2022/12/24 01:08:42;;;;;;;1.33;1.20;;;18.80;63.30;;;;;;5054762;28;20209;-66
2022/12/24 01:11:10;;;;;;;1.50;1.10;;;18.80;63.30;;;;;;5069556;28;20696;-67
2022/12/24 01:13:37;;;;;;;1.50;0.80;;;18.80;63.30;;;;;;5051890;28;20273;-66
2022/12/24 01:16:11;;;;;;;1.75;0.95;;;18.80;63.30;;;;;;5067289;28;20272;-66
2022/12/24 01:18:37;;;;;;;2.63;1.40;;;18.80;63.30;;;;;;5058659;28;20237;-66
2022/12/24 01:21:03;;;;;;;1.23;0.98;;;18.80;63.30;;;;;;5070337;28;20214;-66
2022/12/24 01:23:30;;;;;;;1.15;0.80;;;18.80;63.30;;;;;;5057350;28;20252;-67
2022/12/24 01:26:03;;;;;;;1.73;0.82;;;18.80;63.30;;;;;;5051397;28;20247;-67
2022/12/24 01:28:31;;;;;;;1.50;1.10;;;18.80;63.30;;;;;;5051261;28;20264;-66
2022/12/24 01:30:56;;;;;;;2.33;1.20;;;18.80;63.30;;;;;;5082906;28;20190;-67
2022/12/24 01:33:22;;;;;;;1.20;1.10;;;18.80;63.20;;;;;;5047949;28;20644;-67
2022/12/24 01:35:48;;;;;;;1.45;1.00;;;18.70;63.10;;;;;;5062616;28;20222;-66
2022/12/24 01:38:14;;;;;;;1.45;0.85;;;18.80;63.30;;;;;;5053893;28;20182;-66
2022/12/24 01:43:30;;;;;;;1.33;0.95;;;18.70;63.00;;;;;;5064587;28;20247;-64
2022/12/24 01:46:01;;;;;;;1.00;0.90;;;18.80;63.20;;;;;;5050482;28;20222;-67
2022/12/24 01:48:34;;;;;;;1.88;1.10;;;18.80;63.20;;;;;;5056349;28;20213;-66
2022/12/24 01:51:23;;;;;;;1.70;1.17;;;18.80;63.20;;;;;;5069286;28;20199;-66
2022/12/24 01:53:58;;;;;;;1.55;1.35;;;18.80;63.20;;;;;;5050880;28;20248;-66
2022/12/24 01:56:27;;;;;;;1.42;1.10;;;18.70;63.00;;;;;;5047485;28;20213;-67
2022/12/24 01:59:01;;;;;;;1.23;0.90;;;18.80;63.20;;;;;;5051271;28;20211;-66
2022/12/24 02:01:27;;;;;;;0.85;0.75;;;18.70;63.00;;;;;;5057106;28;20188;-66
2022/12/24 02:03:52;;;;;;;1.52;0.95;;;18.80;63.10;;;;;;5065191;28;20187;-66
2022/12/24 02:06:21;;;;;;;1.92;1.20;;;18.70;63.00;;;;;;5053928;28;20680;-67
2022/12/24 02:08:47;;;;;;;1.38;0.90;;;18.70;63.00;;;;;;5055032;28;20241;-66
2022/12/24 02:11:21;;;;;;;1.40;1.00;;;18.80;63.10;;;;;;5062426;28;20181;-67
2022/12/24 02:13:57;;;;;;;1.73;1.00;;;18.70;63.00;;;;;;5053818;28;20182;-66
2022/12/24 02:17:07;;;;;;;1.98;0.80;;;18.70;63.00;;;;;;5047061;28;20205;-66
2022/12/24 02:20:17;;;;;;;1.88;0.85;;;18.80;63.10;;;;;;5050532;28;20225;-65
2022/12/24 02:23:20;;;;;;;1.27;1.15;;;18.70;62.90;;;;;;5058492;28;20197;-66
2022/12/24 02:26:10;;;;;;;1.15;0.82;;;18.70;62.90;;;;;;5051771;28;20186;-66
2022/12/24 02:28:41;;;;;;;0.88;0.80;;;18.80;63.00;;;;;;5050617;28;20292;-66
2022/12/24 02:31:46;;;;;;;1.85;0.90;;;18.80;63.00;;;;;;5074850;28;20195;-66
2022/12/24 02:34:33;;;;;;;1.52;1.08;;;18.70;62.90;;;;;;5051440;28;20190;-66
2022/12/24 02:37:14;;;;;;;1.30;0.90;;;18.80;63.00;;;;;;5059752;28;20193;-66
2022/12/24 02:39:47;;;;;;;1.60;0.90;;;18.70;62.80;;;;;;5053372;28;20247;-66
2022/12/24 02:42:22;;;;;;;1.90;0.98;;;18.70;62.90;;;;;;5050231;28;20264;-66
2022/12/24 02:44:57;;;;;;;1.25;1.10;;;18.70;62.90;;;;;;5057800;28;20293;-66
2022/12/24 02:47:27;;;;;;;1.77;1.00;;;18.70;62.80;;;;;;5063014;28;20191;-66
2022/12/24 02:49:53;;;;;;;2.42;1.10;;;18.70;62.80;;;;;;5061490;28;20213;-66
2022/12/24 02:52:33;;;;;;;1.80;1.00;;;18.80;62.90;;;;;;5070217;28;20220;-66
2022/12/24 02:55:13;;;;;;;1.50;1.02;;;18.80;62.80;;;;;;5069028;28;20209;-67
2022/12/24 02:58:17;;;;;;;1.73;0.90;;;18.70;62.70;;;;;;5052942;28;20217;-66
2022/12/24 03:01:30;;;;;;;1.45;1.05;;;18.70;62.80;;;;;;5063712;28;20190;-67
2022/12/24 03:04:38;;;;;;;1.42;0.95;;;18.70;62.80;;;;;;5035570;28;20204;-67
2022/12/24 03:07:25;;;;;;;1.17;0.80;;;18.70;62.80;;;;;;5065233;28;20261;-66
2022/12/24 03:10:39;;;;;;;1.67;0.77;;;18.70;62.80;;;;;;5062216;28;20210;-66
2022/12/24 03:13:19;;;;;;;1.88;1.00;;;18.70;62.70;;;;;;5055793;28;20186;-66
2022/12/24 03:15:47;;;;;;;1.55;0.90;;;18.70;62.70;;;;;;5059519;28;20212;-66
2022/12/24 03:18:18;;;;;;;1.33;0.90;;;18.70;62.60;;;;;;5064865;28;20745;-67
2022/12/24 03:21:16;;;;;;;0.73;0.70;;;18.70;62.60;;;;;;5073847;28;20197;-66
2022/12/24 03:23:42;;;;;;;1.95;0.90;;;18.70;62.70;;;;;;5052242;28;20568;-66
2022/12/24 03:26:13;;;;;;;1.90;1.00;;;18.70;62.70;;;;;;5057017;28;20208;-66
2022/12/24 03:28:41;;;;;;;0.85;0.70;;;18.70;62.70;;;;;;5067162;28;20226;-67
2022/12/24 03:31:09;;;;;;;1.85;1.05;;;18.70;62.70;;;;;;5071205;28;20192;-66
2022/12/24 03:33:35;;;;;;;1.60;0.90;;;18.70;62.60;;;;;;5054657;28;20193;-66
2022/12/24 03:36:02;;;;;;;1.25;0.80;;;18.70;62.60;;;;;;5047895;28;20216;-66
2022/12/24 03:38:28;;;;;;;1.30;0.90;;;18.70;62.60;;;;;;5057831;28;20293;-66
2022/12/24 03:40:54;;;;;;;0.80;0.80;;;18.70;62.60;;;;;;5065379;28;20567;-66
2022/12/24 03:43:19;;;;;;;1.98;0.98;;;18.70;62.60;;;;;;5066428;28;20185;-66
2022/12/24 03:45:45;;;;;;;1.05;0.85;;;18.70;62.60;;;;;;5074424;28;20215;-66
2022/12/24 03:48:11;;;;;;;1.10;0.90;;;18.70;62.60;;;;;;5087466;28;20193;-66
2022/12/24 03:50:36;;;;;;;1.85;0.90;;;18.70;62.50;;;;;;5056310;28;20191;-66
2022/12/24 03:53:02;;;;;;;1.48;0.95;;;18.70;62.50;;;;;;5068346;28;20570;-66
2022/12/24 03:55:28;;;;;;;1.75;0.80;;;18.70;62.50;;;;;;5084156;28;20209;-67
2022/12/24 03:57:54;;;;;;;1.73;0.65;;;18.70;62.50;;;;;;5069506;28;20232;-66
2022/12/24 04:00:20;;;;;;;1.60;0.90;;;18.70;62.50;;;;;;5080824;28;20204;-66
2022/12/24 04:02:46;;;;;;;1.00;0.88;;;18.70;62.50;;;;;;5056513;28;20181;-66
2022/12/24 04:05:19;;;;;;;1.35;1.02;;;18.70;62.50;;;;;;5052625;28;20190;-66
2022/12/24 04:07:46;;;;;;;1.45;0.82;;;18.70;62.50;;;;;;5052314;28;20194;-66
2022/12/24 04:10:14;;;;;;;1.67;0.90;;;18.70;62.50;;;;;;5067920;28;20202;-66
2022/12/24 04:12:40;;;;;;;1.30;0.70;;;18.70;62.50;;;;;;5036050;28;20194;-66
2022/12/24 04:15:07;;;;;;;1.40;0.90;;;18.60;62.40;;;;;;5072750;28;20202;-66
2022/12/24 04:17:33;;;;;;;0.90;0.60;;;18.70;62.50;;;;;;5052402;28;20187;-66
2022/12/24 04:19:58;;;;;;;1.25;1.00;;;18.60;62.40;;;;;;5094165;28;20205;-66
2022/12/24 04:22:24;;;;;;;1.38;1.00;;;18.70;62.50;;;;;;5039937;28;20240;-66
2022/12/24 04:24:50;;;;;;;1.20;0.80;;;18.70;62.50;;;;;;5047899;28;20189;-66
2022/12/24 04:27:16;;;;;;;1.17;0.80;;;18.60;62.40;;;;;;5052815;28;20265;-66
2022/12/24 04:29:42;;;;;;;0.90;0.73;;;18.70;62.40;;;;;;5041769;28;20296;-66
2022/12/24 04:32:08;;;;;;;1.80;1.00;;;18.70;62.40;;;;;;5052509;28;20277;-67
2022/12/24 04:34:35;;;;;;;1.13;0.73;;;18.70;62.50;;;;;;5040531;28;20194;-66
2022/12/24 04:37:01;;;;;;;1.48;0.93;;;18.60;62.40;;;;;;5072265;28;20185;-66
2022/12/24 04:39:27;;;;;;;2.35;0.90;;;18.70;62.50;;;;;;5063871;28;20217;-66
2022/12/24 04:41:52;;;;;;;1.15;1.00;;;18.60;62.30;;;;;;5055618;28;20182;-66
2022/12/24 04:44:18;;;;;;;1.17;0.80;;;18.70;62.50;;;;;;5072061;28;20725;-66
2022/12/24 04:46:44;;;;;;;1.40;0.90;;;18.60;62.30;;;;;;5047419;28;20186;-66
2022/12/24 04:49:10;;;;;;;0.73;0.70;;;18.60;62.30;;;;;;5061692;28;20202;-66
2022/12/24 04:51:35;;;;;;;1.42;0.73;;;18.60;62.40;;;;;;5058667;28;20183;-66
2022/12/24 04:54:01;;;;;;;0.98;0.63;;;18.70;62.40;;;;;;5071587;28;20194;-66
2022/12/24 04:56:30;;;;;;;1.85;0.80;;;18.60;62.20;;;;;;5035292;28;20264;-66
2022/12/24 04:58:58;;;;;;;1.92;0.82;;;18.60;62.40;;;;;;5073029;28;20210;-66
2022/12/24 05:01:30;;;;;;;1.13;0.90;;;18.70;62.40;;;;;;5053272;28;20232;-66
2022/12/24 05:03:57;;;;;;;1.45;0.80;;;18.70;62.40;;;;;;5060241;28;20563;-66
2022/12/24 05:06:28;;;;;;;1.00;0.90;;;18.60;62.30;;;;;;5076463;28;20194;-66
2022/12/24 05:08:56;;;;;;;1.23;0.73;;;18.60;62.30;;;;;;5075683;28;20205;-66
2022/12/24 05:11:22;;;;;;;1.67;1.00;;;18.60;62.30;;;;;;5054879;28;20186;-66
2022/12/24 05:13:48;;;;;;;1.30;0.70;;;18.60;62.30;;;;;;5065086;28;20194;-66
2022/12/24 05:16:16;;;;;;;0.93;0.70;;;18.60;62.20;;;;;;5061497;28;20323;-66
2022/12/24 05:18:42;;;;;;;2.10;0.77;;;18.60;62.30;;;;;;5064575;28;20220;-66
2022/12/24 05:21:12;;;;;;;1.73;0.70;;;18.60;62.20;;;;;;5057053;28;20186;-66
2022/12/24 05:26:38;;;;;;;0.80;0.70;;;18.60;62.30;;;;;;5070300;28;20216;-66
2022/12/24 05:29:06;;;;;;;1.42;0.80;;;18.60;62.30;;;;;;5044662;28;20259;-66
2022/12/24 05:31:33;;;;;;;1.92;1.00;;;18.60;62.20;;;;;;5055366;28;20250;-67
2022/12/24 05:34:00;;;;;;;1.88;0.88;;;18.60;62.20;;;;;;5068023;28;20195;-67
2022/12/24 05:36:26;;;;;;;1.48;1.10;;;18.60;62.20;;;;;;5042472;28;20206;-67
2022/12/24 05:38:52;;;;;;;1.45;0.90;;;18.60;62.30;;;;;;5054589;28;20213;-66
2022/12/24 05:41:18;;;;;;;1.42;0.70;;;18.60;62.20;;;;;;5071030;28;20177;-66
2022/12/24 05:43:44;;;;;;;1.20;0.88;;;18.60;62.20;;;;;;5040308;28;20183;-66
2022/12/24 05:46:13;;;;;;;2.08;1.10;;;18.60;62.20;;;;;;5065247;28;20189;-66
2022/12/24 05:48:39;;;;;;;1.00;0.80;;;18.60;62.20;;;;;;5063992;28;20262;-66
2022/12/24 05:51:08;;;;;;;1.27;1.00;;;18.60;62.20;;;;;;5068123;28;20198;-66
2022/12/24 05:53:35;;;;;;;0.85;0.80;;;18.60;62.20;;;;;;5041683;28;20716;-69
2022/12/24 05:56:11;;;;;;;1.10;0.82;;;18.60;62.20;;;;;;5063906;28;20232;-66
2022/12/24 05:58:39;;;;;;;2.35;1.10;;;18.60;62.10;;;;;;5047111;28;20209;-66
2022/12/24 06:01:06;;;;;;;1.77;0.70;;;18.60;62.20;;;;;;5062700;28;20181;-66
2022/12/24 06:03:33;;;;;;;0.88;0.70;;;18.60;62.10;;;;;;5061720;28;20185;-66
2022/12/24 06:06:03;;;;;;;1.08;0.68;;;18.60;62.20;;;;;;5054331;28;20186;-66
2022/12/24 06:08:31;;;;;;;1.23;0.90;;;18.60;62.10;;;;;;5050424;28;20214;-66
2022/12/24 06:11:03;;;;;;;1.05;0.93;;;18.60;62.20;;;;;;5057938;28;20193;-66
2022/12/24 06:13:30;;;;;;;1.45;1.00;;;18.60;62.20;;;;;;5057892;28;20277;-66
2022/12/24 06:15:58;;;;;;;1.67;0.80;;;18.60;62.20;;;;;;5062147;28;20273;-66
2022/12/24 06:18:24;;;;;;;0.75;0.60;;;18.60;62.10;;;;;;5067368;28;20220;-66
2022/12/24 06:20:53;;;;;;;0.70;0.60;;;18.60;62.10;;;;;;5050637;28;20191;-66
2022/12/24 06:23:19;;;;;;;1.35;1.10;;;18.60;62.20;;;;;;5050299;28;20217;-66
2022/12/24 06:25:47;;;;;;;1.48;0.90;;;18.60;62.10;;;;;;5056005;28;20217;-66
2022/12/24 06:28:13;;;;;;;1.23;0.80;;;18.60;62.20;;;;;;5066717;28;20204;-66
2022/12/24 06:30:39;;;;;;;2.10;0.90;;;18.60;62.20;;;;;;5058631;28;20296;-66
2022/12/24 06:33:05;;;;;;;1.42;0.70;;;18.60;62.20;;;;;;5058557;28;20182;-66
2022/12/24 06:35:32;;;;;;;1.05;0.90;;;18.60;62.20;;;;;;5037214;28;20220;-66
2022/12/24 06:37:58;;;;;;;1.40;0.95;;;18.60;62.10;;;;;;5069385;28;20189;-64
2022/12/24 06:40:25;;;;;;;1.40;0.90;;;18.60;62.10;;;;;;5051033;28;20189;-66
2022/12/24 06:42:51;;;;;;;2.03;0.80;;;18.60;62.10;;;;;;5058806;28;20236;-67
2022/12/24 06:45:17;;;;;;;1.02;0.65;;;18.60;62.10;;;;;;5069859;28;20193;-66
2022/12/24 06:47:43;;;;;;;1.20;0.98;;;18.50;62.00;;;;;;5056592;28;20661;-67
2022/12/24 06:50:09;;;;;;;1.20;0.90;;;18.60;62.20;;;;;;5056015;28;20213;-66
2022/12/24 06:52:35;;;;;;;1.13;1.02;;;18.60;62.10;;;;;;5077990;28;20225;-66
2022/12/24 06:55:01;;;;;;;1.02;0.90;;;18.60;62.10;;;;;;5061909;28;20206;-66
2022/12/24 06:57:27;;;;;;;2.08;1.00;;;18.60;62.10;;;;;;5086696;28;20193;-67
2022/12/24 06:59:53;;;;;;;1.42;1.10;;;18.60;62.00;;;;;;5053175;28;20205;-66
2022/12/24 07:02:18;;;;;;;1.42;1.08;;;18.60;62.00;;;;;;5053164;28;20185;-66
2022/12/24 07:04:44;;;;;;;3.25;1.17;;;18.60;62.00;;;;;;5056660;28;20234;-67
2022/12/24 07:07:10;;;;;;;1.67;1.05;;;18.60;62.00;;;;;;5067472;28;20187;-66
2022/12/24 07:09:36;;;;;;;1.23;0.80;;;18.60;62.00;;;;;;5081926;28;20202;-66
2022/12/24 07:12:01;;;;;;;0.90;0.70;;;18.60;62.00;;;;;;5058314;28;20206;-66
2022/12/24 07:14:27;;;;;;;1.02;0.80;;;18.60;62.00;;;;;;5080221;28;20304;-67
2022/12/24 07:16:53;;;;;;;1.20;0.90;;;18.60;62.00;;;;;;5075224;28;20196;-66
2022/12/24 07:19:19;;;;;;;1.58;0.73;;;18.60;62.10;;;;;;5074809;28;20213;-67
2022/12/24 07:21:44;;;;;;;2.55;1.35;;;18.50;61.90;;;;;;5069794;28;20190;-66
2022/12/24 07:24:10;;;;;;;1.20;0.90;;;18.60;62.80;;;;;;5067804;28;20260;-67
2022/12/24 07:26:36;;;;;;;2.83;1.10;;;18.60;62.00;;;;;;5050275;28;20187;-66
2022/12/24 07:29:01;;;;;;;1.45;0.98;;;18.50;61.90;;;;;;5068933;28;20719;-66
2022/12/24 07:31:27;;;;;;;1.10;1.00;;;18.50;61.90;;;;;;5048976;28;20194;-66
2022/12/24 07:33:53;;;;;;;2.05;1.00;;;18.60;62.00;;;;;;5052691;28;20194;-66
2022/12/24 07:36:20;;;;;;;1.73;1.25;;;18.60;62.00;;;;;;5069962;28;20214;-67
2022/12/24 07:38:47;;;;;;;2.15;1.35;;;18.60;62.00;;;;;;5069419;28;20240;-66
2022/12/24 07:41:14;;;;;;;1.58;1.20;;;18.60;61.90;;;;;;5057795;28;20185;-66
2022/12/24 07:43:40;;;;;;;1.83;1.10;;;18.50;61.70;;;;;;5074271;28;20195;-67
2022/12/24 07:46:05;;;;;;;2.17;1.33;;;18.60;61.90;;;;;;5057895;28;20183;-67
2022/12/24 07:48:32;;;;;;;1.73;1.25;;;18.50;61.80;;;;;;5062598;28;20641;-67
2022/12/24 07:50:59;;;;;;;2.03;1.20;;;18.50;61.70;;;;;;5070990;28;20197;-66
2022/12/24 07:53:29;;;;;;;1.75;1.15;;;18.50;61.80;;;;;;5061190;28;20697;-66
2022/12/24 07:55:56;;;;;;;1.40;1.30;;;18.50;61.70;;;;;;5036507;28;20212;-66
2022/12/24 07:58:22;;;;;;;1.95;1.42;;;18.50;61.70;;;;;;5077262;28;20673;-67
2022/12/24 08:00:47;;;;;;;1.75;1.40;;;18.60;61.80;;;;;;5047715;28;20182;-66
2022/12/24 08:03:20;;;;;;;1.02;0.93;;;18.60;61.80;;;;;;5070075;28;20244;-66
2022/12/24 08:05:47;;;;;;;1.65;1.10;;;18.50;61.70;;;;;;5065112;28;20224;-66
2022/12/24 08:08:13;;;;;;;3.00;1.48;;;18.50;61.70;;;;;;5073920;28;20264;-66
2022/12/24 08:10:40;;;;;;;1.90;1.45;;;18.50;61.80;;;;;;5050032;28;20233;-67
2022/12/24 08:13:06;;;;;;;1.42;1.23;;;18.60;61.80;;;;;;5056910;28;20185;-66
2022/12/24 08:15:33;;;;;;;1.13;0.95;;;18.50;61.70;;;;;;5058176;28;20601;-66
2022/12/24 08:17:59;;;;;;;1.40;1.17;;;18.60;61.90;;;;;;5056455;28;20189;-66
2022/12/24 08:20:25;;;;;;;2.08;1.20;;;18.60;61.80;;;;;;5054812;28;20193;-66
2022/12/24 08:22:52;;;;;;;1.42;1.20;;;18.50;61.70;;;;;;5058400;28;20188;-66
2022/12/24 08:25:19;;;;;;;1.25;1.13;;;18.60;61.80;;;;;;5072972;28;20274;-66
2022/12/24 08:27:45;;;;;;;2.00;1.33;;;18.50;61.80;;;;;;5069261;28;20190;-67
2022/12/24 08:30:12;;;;;;;2.15;1.30;;;18.50;61.80;;;;;;5068815;28;20214;-66
2022/12/24 08:32:39;;;;;;;1.20;1.02;;;18.60;61.90;;;;;;5048136;28;20191;-66
2022/12/24 08:35:05;;;;;;;1.73;1.38;;;18.60;61.90;;;;;;5064437;28;20210;-66
2022/12/24 08:37:31;;;;;;;2.58;1.25;;;18.50;61.70;;;;;;5071960;28;20240;-65
2022/12/24 08:39:57;;;;;;;1.60;1.20;;;18.50;61.70;;;;;;5056273;28;20602;-66
2022/12/24 08:42:23;;;;;;;2.42;1.25;;;18.50;61.80;;;;;;5057413;28;20190;-66
2022/12/24 08:44:48;;;;;;;2.55;1.45;;;18.50;61.80;;;;;;5070816;28;20569;-66
2022/12/24 08:47:14;;;;;;;2.42;1.60;;;18.60;61.80;;;;;;5055739;28;20192;-66
2022/12/24 08:49:40;;;;;;;1.85;1.40;;;18.60;61.90;;;;;;5055505;28;20223;-66
2022/12/24 08:52:05;;;;;;;1.73;1.35;;;18.60;61.80;;;;;;5072396;28;20185;-67
2022/12/24 08:54:31;;;;;;;2.10;1.27;;;18.60;61.80;;;;;;5072248;28;20212;-66
2022/12/24 08:56:57;;;;;;;3.05;1.50;;;18.50;61.70;;;;;;5070104;28;20292;-66
2022/12/24 08:59:23;;;;;;;2.72;1.25;;;18.60;61.80;;;;;;5065793;28;20206;-66
2022/12/24 09:01:48;;;;;;;2.53;1.40;;;18.60;61.80;;;;;;5052335;28;20274;-67
2022/12/24 09:04:14;;;;;;;1.80;1.35;;;18.50;61.70;;;;;;5038800;28;20178;-67
2022/12/24 09:06:40;;;;;;;2.67;1.77;;;18.50;61.70;;;;;;5060545;28;20198;-66
2022/12/24 09:09:06;;;;;;;2.72;1.33;;;18.60;61.80;;;;;;5077038;28;20198;-66
2022/12/24 09:11:34;;;;;;;3.03;1.38;;;18.50;61.80;;;;;;5071106;28;20200;-66
2022/12/24 09:14:00;;;;;;;2.25;1.20;;;18.60;61.80;;;;;;5049084;28;20194;-67
2022/12/24 09:16:27;;;;;;;2.85;1.33;;;18.50;61.70;;;;;;5061868;28;20209;-66
2022/12/24 09:18:52;;;;;;;1.77;1.50;;;18.50;61.70;;;;;;5071034;28;20206;-66
2022/12/24 09:21:18;;;;;;;1.83;1.33;;;18.50;61.70;;;;;;5068942;28;20214;-66
2022/12/24 09:23:46;;;;;;;2.53;1.10;;;18.50;61.70;;;;;;5068130;28;20189;-66
2022/12/24 09:26:21;;;;;;;2.65;1.50;;;18.60;61.80;;;;;;5075889;28;20189;-66
2022/12/24 09:28:49;;;;;;;2.47;1.20;;;18.50;61.70;;;;;;5052267;28;20204;-66
2022/12/24 09:31:16;;;;;;;3.22;1.38;;;18.60;61.80;;;;;;5066915;28;20181;-66
2022/12/24 09:33:44;;;;;;;3.20;1.52;;;18.60;61.70;;;;;;5059160;28;20222;-66
2022/12/24 09:36:11;;;;;;;2.47;1.35;;;18.60;61.70;;;;;;5068377;28;20602;-67
2022/12/24 09:38:39;;;;;;;1.85;1.27;;;18.60;61.70;;;;;;5084256;28;20630;-67
2022/12/24 09:41:21;;;;;;;1.63;1.30;;;18.60;61.70;;;;;;5060058;28;20182;-67
2022/12/24 09:43:57;;;;;;;2.60;1.58;;;18.60;61.70;;;;;;5068073;28;20186;-66
2022/12/24 09:46:34;;;;;;;3.22;1.75;;;18.60;61.80;;;;;;5052341;28;20288;-67
2022/12/24 09:49:07;;;;;;;2.75;1.60;;;18.60;62.00;;;;;;5054437;28;20300;-66
2022/12/24 09:51:44;;;;;;;2.65;1.60;;;18.60;61.90;;;;;;5059978;28;20194;-66
2022/12/24 09:54:43;;;;;;;4.38;1.52;;;18.60;61.90;;;;;;5052730;28;20236;-66
2022/12/24 09:57:35;;;;;;;3.15;1.42;;;18.60;61.80;;;;;;5047848;28;20213;-66
2022/12/24 10:00:03;;;;;;;2.08;1.52;;;18.60;61.80;;;;;;5068932;28;20204;-66
2022/12/24 10:02:35;;;;;;;1.92;1.23;;;18.60;61.80;;;;;;5074788;28;20217;-66
2022/12/24 10:05:01;;;;;;;5.88;1.90;;;18.60;61.80;;;;;;5074198;28;20189;-66
2022/12/24 10:07:45;;;;;;;1.92;1.40;;;18.60;61.80;;;;;;5083906;28;20719;-67
2022/12/24 10:10:39;;;;;;;3.38;1.55;;;18.60;61.90;;;;;;5075846;28;20258;-66
2022/12/24 10:13:38;;;;;;;2.05;1.35;;;18.60;62.10;;;;;;5074560;28;20181;-66
2022/12/24 10:16:42;;;;;;;3.08;1.33;;;18.60;62.00;;;;;;5063970;28;20241;-66
2022/12/24 10:19:55;;;;;;;4.35;1.67;;;18.60;62.00;;;;;;5065031;28;20244;-66
2022/12/24 10:22:42;;;;;;;1.92;1.30;;;18.60;62.00;;;;;;5065540;28;20188;-66
2022/12/24 10:25:31;;;;;;;3.35;1.48;;;18.60;62.00;;;;;;5051364;28;20194;-66
2022/12/24 10:28:02;;;;;;;2.88;1.45;;;18.60;61.90;;;;;;5052556;28;20539;-66
2022/12/24 10:30:28;;;;;;;2.03;1.50;;;18.60;62.00;;;;;;5056671;28;20189;-66
2022/12/24 10:32:54;;;;;;;2.00;1.30;;;18.60;61.90;;;;;;5074499;28;20639;-66
2022/12/24 10:35:41;;;;;;;4.35;1.52;;;18.60;61.90;;;;;;5074052;28;20342;-67
2022/12/24 10:38:08;;;;;;;2.60;1.50;;;18.60;61.90;;;;;;5052435;28;20189;-66
2022/12/24 10:40:48;;;;;;;2.22;1.30;;;18.60;61.90;;;;;;5068803;28;20202;-66
2022/12/24 10:43:21;;;;;;;3.38;1.50;;;18.60;61.90;;;;;;5050269;28;20188;-66
2022/12/24 10:45:55;;;;;;;2.53;1.50;;;18.60;61.80;;;;;;5058938;28;20190;-67
2022/12/24 10:48:47;;;;;;;1.50;1.20;;;18.60;61.90;;;;;;5050569;28;20212;-65
2022/12/24 10:51:42;;;;;;;4.78;1.75;;;18.60;61.80;;;;;;5070756;28;20204;-66
2022/12/24 10:54:18;;;;;;;2.33;1.20;;;18.60;61.90;;;;;;5087082;28;20235;-66
2022/12/24 10:56:51;;;;;;;2.60;1.30;;;18.60;62.00;;;;;;5082266;28;20204;-65
2022/12/24 10:59:51;;;;;;;2.97;1.50;;;18.60;61.90;;;;;;5068821;28;20209;-66
2022/12/24 11:02:33;;;;;;;2.65;1.50;;;18.60;61.80;;;;;;5066636;28;20198;-66
2022/12/24 11:05:01;;;;;;;2.25;1.17;;;18.60;61.90;;;;;;5063872;28;20197;-67
2022/12/24 11:07:30;;;;;;;3.40;1.33;;;18.60;61.80;;;;;;5084629;28;20228;-67
2022/12/24 11:10:07;;;;;;;2.25;1.10;;;18.60;61.90;;;;;;5074276;28;20586;-68
2022/12/24 11:12:44;;;;;;;2.20;1.55;;;18.60;61.90;;;;;;5062195;28;20189;-67
2022/12/24 11:15:23;;;;;;;2.65;1.40;;;18.60;61.80;;;;;;5064745;28;20218;-67
2022/12/24 11:18:04;;;;;;;3.20;1.60;;;18.60;61.90;;;;;;5055291;28;20182;-67
2022/12/24 11:20:33;;;;;;;4.18;1.35;;;18.60;61.90;;;;;;5073294;28;20244;-66
2022/12/24 11:23:01;;;;;;;1.90;1.15;;;18.60;61.90;;;;;;5067623;28;20192;-67
2022/12/24 11:25:33;;;;;;;2.03;1.42;;;18.60;61.90;;;;;;5074377;28;20216;-66
2022/12/24 11:28:34;;;;;;;2.65;1.45;;;18.60;61.90;;;;;;5074024;28;20200;-66
2022/12/24 11:31:18;;;;;;;4.05;1.45;;;18.60;61.90;;;;;;5081369;28;20176;-68
2022/12/24 11:33:52;;;;;;;2.97;1.50;;;18.60;61.90;;;;;;5082975;28;20235;-68
2022/12/24 11:36:23;;;;;;;3.10;1.58;;;18.60;61.80;;;;;;5053005;28;20218;-68
2022/12/24 11:38:55;;;;;;;2.50;1.40;;;18.60;61.90;;;;;;5076716;28;20287;-67
2022/12/24 11:41:21;;;;;;;2.58;1.50;;;18.60;61.90;;;;;;5086527;28;20271;-67
2022/12/24 11:43:56;;;;;;;4.40;1.80;;;18.60;61.90;;;;;;5073564;28;20177;-68
2022/12/24 11:46:43;;;;;;;5.63;1.70;;;18.60;61.90;;;;;;5062422;28;20194;-66
2022/12/24 11:49:12;;;;;;;2.70;1.58;;;18.60;62.10;;;;;;5067908;28;20292;-68
2022/12/24 11:51:43;;;;;;;2.95;1.60;;;18.60;62.10;;;;;;5073799;28;20277;-67
2022/12/24 11:54:28;;;;;;;3.78;1.77;;;18.60;62.20;;;;;;5067372;28;20209;-67
2022/12/24 11:56:57;;;;;;;2.83;1.35;;;18.60;62.30;;;;;;5077473;28;20281;-67
2022/12/24 11:59:36;;;;;;;2.53;1.23;;;18.60;62.20;;;;;;5056572;28;20352;-67
2022/12/24 12:02:36;;;;;;;2.95;1.30;;;18.60;62.20;;;;;;5066759;28;20188;-66
2022/12/24 12:05:15;;;;;;;3.45;1.40;;;18.60;62.20;;;;;;5056435;28;20193;-67
2022/12/24 12:07:48;;;;;;;2.35;1.27;;;18.60;62.10;;;;;;5075094;28;20186;-67
2022/12/24 12:10:29;;;;;;;2.08;1.23;;;18.60;62.10;;;;;;5056815;28;20220;-67
2022/12/24 12:13:21;;;;;;;3.78;1.65;;;18.60;62.10;;;;;;5065922;28;20185;-67
2022/12/24 12:16:18;;;;;;;3.20;1.60;;;18.60;62.00;;;;;;5061331;28;20206;-67
2022/12/24 12:18:58;;;;;;;3.42;1.42;;;18.60;62.10;;;;;;5073453;28;20216;-67
2022/12/24 12:21:44;;;;;;;2.63;1.67;;;18.60;62.30;;;;;;5078500;28;20186;-67
2022/12/24 12:24:24;;;;;;;5.68;1.85;;;18.60;62.50;;;;;;5055459;28;20188;-67
2022/12/24 12:27:06;;;;;;;1.73;1.30;;;18.60;62.40;;;;;;5078977;28;20194;-67
2022/12/24 12:29:43;;;;;;;5.22;2.05;;;18.60;62.40;;;;;;5080825;28;20217;-67
2022/12/24 12:32:58;;;;;;;3.10;2.03;;;18.60;62.40;;;;;;5064431;28;20190;-66
2022/12/24 12:35:33;;;;;;;4.15;1.70;;;18.60;62.40;;;;;;5064411;28;20251;-66
2022/12/24 12:38:19;;;;;;;5.95;2.00;;;18.60;62.40;;;;;;5065818;28;20177;-66
2022/12/24 12:41:29;;;;;;;5.55;1.95;;;18.60;62.40;;;;;;5072705;28;20192;-67
2022/12/24 12:44:49;;;;;;;4.40;1.92;;;18.60;62.30;;;;;;5053710;28;20664;-66
2022/12/24 12:47:51;;;;;;;2.83;1.60;;;18.60;62.30;;;;;;5063283;28;20186;-67
2022/12/24 12:51:02;;;;;;;21.40;15.15;;;18.60;62.30;;;;;;5074719;28;20213;-66
2022/12/24 12:53:58;;;;;;;25.52;17.60;;;18.70;63.30;;;;;;5077247;28;20178;-67
2022/12/24 12:56:34;;;;;;;20.55;13.82;;;18.60;62.70;;;;;;5069847;28;20280;-67
2022/12/24 12:59:11;;;;;;;22.63;15.35;;;18.60;62.70;;;;;;5077911;28;20287;-66
2022/12/24 13:01:53;;;;;;;19.20;15.00;;;18.70;62.80;;;;;;5084372;28;20250;-67
2022/12/24 13:05:05;;;;;;;24.27;16.75;;;18.70;62.70;;;;;;5093920;28;20558;-67
2022/12/24 13:07:55;;;;;;;20.13;16.65;;;18.60;62.60;;;;;;5063314;28;20258;-66
2022/12/24 13:11:13;;;;;;;25.05;17.75;;;18.60;62.60;;;;;;5079522;28;20226;-66
2022/12/24 13:14:02;;;;;;;26.52;19.25;;;18.60;62.70;;;;;;5053313;28;20190;-66
2022/12/24 13:16:58;;;;;;;29.60;20.50;;;18.60;62.60;;;;;;5063614;28;20205;-67
2022/12/24 13:19:49;;;;;;;27.77;20.45;;;18.60;62.50;;;;;;5084126;28;20213;-67
2022/12/24 13:22:17;;;;;;;25.73;19.73;;;18.60;62.60;;;;;;5057775;28;20229;-67